Menalon — SXCH — position and weather

sailwx.info

Track history (hours):
 
Tides and Currents Weather Stations Pressure Air Temp Water Temp Dewpoint Dewpoint Depression Visibility Wind Speed Wind Dir Waves Ship Positions

Menalon

Last reported at 2017-Jan-17 14:33 UTC. Time now 2017-Jan-17 15:08 UTC.
Position N 37°53' E 023°33'.

Length 83 m; draft 3.5 m.

Type: Ship (hazmat cat C). MMSI: 239741000.

Date/timePositionNaut miles runAvg speedWind from/ knotsBaromVisibWave heightAir tempDewpointWater temp
2017-Jan-17 14:33N 37°53' E 023°33'0 0.0
2017-Jan-17 13:33N 37°53' E 023°33'0 0.1
2017-Jan-17 12:34N 37°53' E 023°33'0 0.1
2017-Jan-17 11:33N 37°53' E 023°32'1 0.6
2017-Jan-17 10:34N 37°54' E 023°33'4 4.4
2017-Jan-17 09:33N 37°57' E 023°36'0 0.0
2017-Jan-17 08:33N 37°57' E 023°36'0 0.0
2017-Jan-17 07:33N 37°57' E 023°36'3 2.7
2017-Jan-17 06:33N 37°58' E 023°33'2 2.1
2017-Jan-17 05:33N 38°00' E 023°33'2 1.6
2017-Jan-17 04:33N 38°01' E 023°35'0 0.0
2017-Jan-17 03:33N 38°01' E 023°35'0 0.0
2017-Jan-17 02:33N 38°01' E 023°35'0 0.0
2017-Jan-17 01:33N 38°01' E 023°35'0 0.0
2017-Jan-17 00:33N 38°01' E 023°35'0 0.0
2017-Jan-16 23:33N 38°01' E 023°35'1 0.8
2017-Jan-16 22:33N 38°02' E 023°36'0 0.0
2017-Jan-16 21:33N 38°02' E 023°36'0 0.0
2017-Jan-16 20:33N 38°02' E 023°36'0 0.0
2017-Jan-16 19:33N 38°02' E 023°36'0 0.0
2017-Jan-16 18:33N 38°02' E 023°36'1 1.0
2017-Jan-16 17:33N 38°01' E 023°35'1 1.1
2017-Jan-16 16:33N 38°01' E 023°33'0 0.0
2017-Jan-16 15:33N 38°01' E 023°33'2 1.5
2017-Jan-16 14:33N 38°02' E 023°35'0 0.0
2017-Jan-16 13:33N 38°02' E 023°35'0 0.1
2017-Jan-16 12:33N 38°02' E 023°35'0 0.0
2017-Jan-16 11:33N 38°02' E 023°35'0 0.0
2017-Jan-16 10:33N 38°02' E 023°35'0 0.0
2017-Jan-16 09:33N 38°02' E 023°35'0 0.1
2017-Jan-16 08:33N 38°02' E 023°35'0 0.0
2017-Jan-16 07:33N 38°02' E 023°35'0 0.1
2017-Jan-16 06:33N 38°02' E 023°35'0 0.0
2017-Jan-16 05:33N 38°02' E 023°35'0 0.0
2017-Jan-16 04:33N 38°02' E 023°35'0 0.0
2017-Jan-16 03:33N 38°02' E 023°35'0 0.0
2017-Jan-16 02:33N 38°02' E 023°35'0 0.0
2017-Jan-16 01:33N 38°02' E 023°35'0 0.1
2017-Jan-16 00:33N 38°02' E 023°35'0 0.0
2017-Jan-15 23:33N 38°02' E 023°35'0 0.0
2017-Jan-15 22:33N 38°02' E 023°35'0 0.0
2017-Jan-15 21:33N 38°02' E 023°35'0 0.0
2017-Jan-15 20:33N 38°02' E 023°35'0 0.0
2017-Jan-15 19:33N 38°02' E 023°35'0 0.0
2017-Jan-15 18:33N 38°02' E 023°35'0 0.0
2017-Jan-15 17:33N 38°02' E 023°35'0 0.0
2017-Jan-15 16:33N 38°02' E 023°35'0 0.0
2017-Jan-15 15:33N 38°02' E 023°35'0 0.1
2017-Jan-15 14:33N 38°02' E 023°35'0 0.0
2017-Jan-15 13:33N 38°02' E 023°35'0 0.0
2017-Jan-15 12:33N 38°02' E 023°35'0 0.0
2017-Jan-15 11:33N 38°02' E 023°35'0 0.0
2017-Jan-15 10:33N 38°02' E 023°35'0 0.0
2017-Jan-15 09:33N 38°02' E 023°35'0 0.1
2017-Jan-15 08:33N 38°02' E 023°35'0 0.1
2017-Jan-15 07:33N 38°02' E 023°35'0 0.4
2017-Jan-15 06:34N 38°02' E 023°36'0 0.0
2017-Jan-15 05:33N 38°02' E 023°36'0 0.0
2017-Jan-15 04:33N 38°02' E 023°36'0 0.0
2017-Jan-15 03:33N 38°02' E 023°36'0 0.1
2017-Jan-15 02:33N 38°02' E 023°36'8 7.6
2017-Jan-15 01:33N 37°60' E 023°26'7 7.4
2017-Jan-15 00:33N 37°52' E 023°25'5 5.3
2017-Jan-14 23:33N 37°51' E 023°32'0 0.0
2017-Jan-14 22:33N 37°51' E 023°32'0 0.0
2017-Jan-14 21:33N 37°51' E 023°32'0 0.0
2017-Jan-14 20:33N 37°51' E 023°32'0 0.0
2017-Jan-14 19:33N 37°51' E 023°32'0 0.0
2017-Jan-14 18:33N 37°51' E 023°32'0 0.0
2017-Jan-14 17:33N 37°51' E 023°32'0 0.0
2017-Jan-14 16:33N 37°51' E 023°32'0 0.0
2017-Jan-14 15:33N 37°51' E 023°32'0 0.1
2017-Jan-14 14:33N 37°51' E 023°32'0 0.2
2017-Jan-14 13:33N 37°52' E 023°32'0 0.2
2017-Jan-14 12:33N 37°52' E 023°32'0 0.0
2017-Jan-14 11:34N 37°52' E 023°32'0 0.0
2017-Jan-14 10:33N 37°52' E 023°32'0 0.0
2017-Jan-14 09:33N 37°52' E 023°32'3 3.2
2017-Jan-14 08:33N 37°55' E 023°33'7 6.7
2017-Jan-14 07:33N 38°01' E 023°32'1 0.6
2017-Jan-14 06:33N 38°02' E 023°32'0 0.0
2017-Jan-14 05:33N 38°02' E 023°32'0 0.0
2017-Jan-14 04:33N 38°02' E 023°32'0 0.0
2017-Jan-14 03:33N 38°02' E 023°32'0 0.0
2017-Jan-13 23:33N 38°02' E 023°32'0 0.0
2017-Jan-13 22:33N 38°02' E 023°32'0 0.0
2017-Jan-13 21:33N 38°02' E 023°32'0 0.0
2017-Jan-13 20:33N 38°02' E 023°32'0 0.0
2017-Jan-13 19:33N 38°02' E 023°32'0 0.0
2017-Jan-13 18:33N 38°02' E 023°32'0 0.0
2017-Jan-13 17:33N 38°02' E 023°32'0 0.1
2017-Jan-13 16:33N 38°02' E 023°32'0 0.1
2017-Jan-13 15:33N 38°02' E 023°32'3 2.8
2017-Jan-13 14:33N 38°02' E 023°36'0 0.0
2017-Jan-13 13:33N 38°02' E 023°36'0 0.0
2017-Jan-13 12:34N 38°02' E 023°36'0 0.0
2017-Jan-13 11:33N 38°02' E 023°36'0 0.0
2017-Jan-13 10:33N 38°02' E 023°36'0 0.0
2017-Jan-13 09:33N 38°02' E 023°36'0 0.0
2017-Jan-13 08:33N 38°02' E 023°36'0 0.0
2017-Jan-13 07:33N 38°02' E 023°36'0 0.0
2017-Jan-13 06:33N 38°02' E 023°36'0 0.0
2017-Jan-13 05:33N 38°02' E 023°36'0 0.4
2017-Jan-13 04:33N 38°02' E 023°35'6 5.9
2017-Jan-13 03:33N 38°00' E 023°28'8 8.0
2017-Jan-13 02:33N 37°53' E 023°24'9 8.9
2017-Jan-13 01:33N 37°56' E 023°34'1 1.4
2017-Jan-13 00:33N 37°57' E 023°36'0 0.0
2017-Jan-12 23:33N 37°57' E 023°36'0 0.0
2017-Jan-12 22:33N 37°57' E 023°36'0 0.0
2017-Jan-12 21:33N 37°57' E 023°36'0 0.0
2017-Jan-12 20:33N 37°57' E 023°36'0 0.0
2017-Jan-12 19:33N 37°57' E 023°36'0 0.0
2017-Jan-12 18:34N 37°57' E 023°36'0 0.0
2017-Jan-12 17:33N 37°57' E 023°36'0 0.1
2017-Jan-12 16:33N 37°57' E 023°36'6 6.4
2017-Jan-12 15:34N 37°52' E 023°32'0 0.4
2017-Jan-12 14:34N 37°51' E 023°32'0 0.0
2017-Jan-12 13:33N 37°51' E 023°31'0 0.0
2017-Jan-12 12:33N 37°51' E 023°31'0 0.0
2017-Jan-12 11:33N 37°51' E 023°31'0 0.0
2017-Jan-12 10:33N 37°51' E 023°31'2 1.9
2017-Jan-12 09:33N 37°53' E 023°33'3 3.2
2017-Jan-12 08:33N 37°56' E 023°34'0 0.0
2017-Jan-12 07:33N 37°56' E 023°34'0 0.4
2017-Jan-12 06:33N 37°56' E 023°34'5 5.5
2017-Jan-12 05:33N 38°01' E 023°35'0 0.0
2017-Jan-12 04:34N 38°01' E 023°35'0 0.0
2017-Jan-12 03:34N 38°01' E 023°35'0 0.0
2017-Jan-12 02:34N 38°01' E 023°35'0 0.0
2017-Jan-12 01:33N 38°01' E 023°35'0 0.0
2017-Jan-12 00:33N 38°01' E 023°35'0 0.1
2017-Jan-11 23:34N 38°01' E 023°35'0 0.0
2017-Jan-11 22:33N 38°01' E 023°35'0 0.0
2017-Jan-11 21:34N 38°01' E 023°35'0 0.0
2017-Jan-11 20:33N 38°01' E 023°35'1 0.7
2017-Jan-11 19:33N 38°02' E 023°36'0 0.0
2017-Jan-11 18:34N 38°02' E 023°36'0 0.0
2017-Jan-11 17:33N 38°02' E 023°36'0 0.0
2017-Jan-11 16:34N 38°02' E 023°36'1 0.8
2017-Jan-11 15:33N 38°01' E 023°35'2 2.0
2017-Jan-11 14:34N 38°02' E 023°32'0 0.0
2017-Jan-11 13:33N 38°01' E 023°32'0 0.0
2017-Jan-11 12:33N 38°01' E 023°32'0 0.0
2017-Jan-11 11:33N 38°01' E 023°32'0 0.0
2017-Jan-11 10:34N 38°02' E 023°32'0 0.1
2017-Jan-11 09:34N 38°01' E 023°32'0 0.1
2017-Jan-11 08:34N 38°01' E 023°32'0 0.0
2017-Jan-11 07:33N 38°01' E 023°32'0 0.0
2017-Jan-11 06:33N 38°01' E 023°32'4 4.2
2017-Jan-11 05:33N 37°57' E 023°34'1 1.0
2017-Jan-11 04:33N 37°57' E 023°35'0 0.0
2017-Jan-11 03:33N 37°57' E 023°35'0 0.0
2017-Jan-11 02:33N 37°57' E 023°35'0 0.0
2017-Jan-11 01:33N 37°57' E 023°35'0 0.0
2017-Jan-11 00:33N 37°57' E 023°35'0 0.1
2017-Jan-10 23:33N 37°57' E 023°35'2 1.9
2017-Jan-10 22:33N 37°55' E 023°34'0 0.0
2017-Jan-10 21:33N 37°56' E 023°34'0 0.0
2017-Jan-10 20:33N 37°55' E 023°34'0 0.0
2017-Jan-10 19:33N 37°56' E 023°34'0 0.0
2017-Jan-10 18:34N 37°56' E 023°34'0 0.0
2017-Jan-10 17:33N 37°56' E 023°34'0 0.0
2017-Jan-10 16:33N 37°55' E 023°34'0 0.0
2017-Jan-10 15:33N 37°56' E 023°34'0 0.1
2017-Jan-10 14:33N 37°55' E 023°34'0 0.0
2017-Jan-10 13:33N 37°55' E 023°34'0 0.1
2017-Jan-10 12:33N 37°55' E 023°34'0 0.0
2017-Jan-10 11:33N 37°55' E 023°34'0 0.0
2017-Jan-10 10:33N 37°55' E 023°34'0 0.0
2017-Jan-10 09:33N 37°55' E 023°34'0 0.0
2017-Jan-10 08:34N 37°55' E 023°34'0 0.0
2017-Jan-10 07:33N 37°55' E 023°34'0 0.0
2017-Jan-10 06:33N 37°55' E 023°34'0 0.0
2017-Jan-10 05:34N 37°55' E 023°34'0 0.0
2017-Jan-10 04:33N 37°55' E 023°34'0 0.0
2017-Jan-10 03:33N 37°55' E 023°34'0 0.0
2017-Jan-10 02:33N 37°55' E 023°34'0 0.0
2017-Jan-10 01:33N 37°55' E 023°34'0 0.0
2017-Jan-10 00:33N 37°55' E 023°34'0 0.0
2017-Jan-09 23:34N 37°55' E 023°34'0 0.0
2017-Jan-09 22:33N 37°55' E 023°34'0 0.0
2017-Jan-09 21:33N 37°55' E 023°34'0 0.0
2017-Jan-09 20:33N 37°55' E 023°34'0 0.0
2017-Jan-09 19:33N 37°55' E 023°34'0 0.0
2017-Jan-09 18:33N 37°55' E 023°34'0 0.0
2017-Jan-09 17:33N 37°55' E 023°34'0 0.0
2017-Jan-09 16:33N 37°55' E 023°34'0 0.0
2017-Jan-09 15:34N 37°55' E 023°34'0 0.0
2017-Jan-09 14:34N 37°55' E 023°34'0 0.0
2017-Jan-09 13:34N 37°55' E 023°34'2 1.8
2017-Jan-09 12:33N 37°57' E 023°35'5 4.5
2017-Jan-09 11:34N 38°02' E 023°35'0 0.1
2017-Jan-09 10:33N 38°02' E 023°35'0 0.0
2017-Jan-09 09:33N 38°02' E 023°35'0 0.0
2017-Jan-09 08:34N 38°02' E 023°35'0 0.0
2017-Jan-09 07:33N 38°02' E 023°35'0 0.0
2017-Jan-09 06:33N 38°02' E 023°35'0 0.0
2017-Jan-09 05:33N 38°02' E 023°35'0 0.0
2017-Jan-09 04:33N 38°02' E 023°35'0 0.0
2017-Jan-09 03:33N 38°02' E 023°35'0 0.0
2017-Jan-09 02:33N 38°02' E 023°35'0 0.0
2017-Jan-09 01:33N 38°02' E 023°35'0 0.0
2017-Jan-09 00:33N 38°02' E 023°35'0 0.0
2017-Jan-08 23:33N 38°02' E 023°35'1 0.6
2017-Jan-08 22:33N 38°02' E 023°36'0 0.0
2017-Jan-08 21:34N 38°02' E 023°36'0 0.0
2017-Jan-08 20:33N 38°02' E 023°36'0 0.0
2017-Jan-08 19:33N 38°02' E 023°36'0 0.0
2017-Jan-08 18:33N 38°02' E 023°36'0 0.0
2017-Jan-08 17:34N 38°02' E 023°36'0 0.0
2017-Jan-08 16:34N 38°02' E 023°36'0 0.0
2017-Jan-08 15:33N 38°02' E 023°36'0 0.0
2017-Jan-08 14:33N 38°02' E 023°36'0 0.0
2017-Jan-08 13:33N 38°02' E 023°36'0 0.0
2017-Jan-08 12:33N 38°02' E 023°36'0 0.0
2017-Jan-08 11:33N 38°02' E 023°36'0 0.0
2017-Jan-08 10:33N 38°02' E 023°36'0 0.0
2017-Jan-08 09:33N 38°02' E 023°36'0 0.0
2017-Jan-08 08:33N 38°02' E 023°36'0 0.0
2017-Jan-08 07:33N 38°02' E 023°36'0 0.0
2017-Jan-08 06:33N 38°02' E 023°36'0 0.0
2017-Jan-08 05:33N 38°02' E 023°36'0 0.0
2017-Jan-08 04:33N 38°02' E 023°36'0 0.0
2017-Jan-08 03:34N 38°02' E 023°36'0 0.0
2017-Jan-08 02:33N 38°02' E 023°36'0 0.0
2017-Jan-08 01:33N 38°02' E 023°36'0 0.0
2017-Jan-08 00:33N 38°02' E 023°36'0 0.0
2017-Jan-07 23:34N 38°02' E 023°36'0 0.0
2017-Jan-07 22:33N 38°02' E 023°36'0 0.0
2017-Jan-07 21:33N 38°02' E 023°36'0 0.0
2017-Jan-07 20:33N 38°02' E 023°36'0 0.0
2017-Jan-07 19:33N 38°02' E 023°36'0 0.0
2017-Jan-07 18:33N 38°02' E 023°36'0 0.0
2017-Jan-07 17:34N 38°02' E 023°36'0 0.5
2017-Jan-07 16:33N 38°02' E 023°35'0 0.0
2017-Jan-07 15:34N 38°02' E 023°35'0 0.4
2017-Jan-07 14:34N 38°02' E 023°36'  
Track history (hours):
 
Tides and Currents Weather Stations Pressure Air Temp Water Temp Dewpoint Dewpoint Depression Visibility Wind Speed Wind Dir Waves Ship Positions

Menalon

Last reported at 2017-Jan-17 14:33 UTC. Time now 2017-Jan-17 15:08 UTC.
Position N 37°53' E 023°33'.

Length 83 m; draft 3.5 m.

Type: Ship (hazmat cat C). MMSI: 239741000.

Date/timePositionNaut miles runAvg speedWind from/ knotsBaromVisibWave heightAir tempDewpointWater temp
2017-Jan-17 14:33N 37°53' E 023°33'0 0.0
2017-Jan-17 13:33N 37°53' E 023°33'0 0.1
2017-Jan-17 12:34N 37°53' E 023°33'0 0.1
2017-Jan-17 11:33N 37°53' E 023°32'1 0.6
2017-Jan-17 10:34N 37°54' E 023°33'4 4.4
2017-Jan-17 09:33N 37°57' E 023°36'0 0.0
2017-Jan-17 08:33N 37°57' E 023°36'0 0.0
2017-Jan-17 07:33N 37°57' E 023°36'3 2.7
2017-Jan-17 06:33N 37°58' E 023°33'2 2.1
2017-Jan-17 05:33N 38°00' E 023°33'2 1.6
2017-Jan-17 04:33N 38°01' E 023°35'0 0.0
2017-Jan-17 03:33N 38°01' E 023°35'0 0.0
2017-Jan-17 02:33N 38°01' E 023°35'0 0.0
2017-Jan-17 01:33N 38°01' E 023°35'0 0.0
2017-Jan-17 00:33N 38°01' E 023°35'0 0.0
2017-Jan-16 23:33N 38°01' E 023°35'1 0.8
2017-Jan-16 22:33N 38°02' E 023°36'0 0.0
2017-Jan-16 21:33N 38°02' E 023°36'0 0.0
2017-Jan-16 20:33N 38°02' E 023°36'0 0.0
2017-Jan-16 19:33N 38°02' E 023°36'0 0.0
2017-Jan-16 18:33N 38°02' E 023°36'1 1.0
2017-Jan-16 17:33N 38°01' E 023°35'1 1.1
2017-Jan-16 16:33N 38°01' E 023°33'0 0.0
2017-Jan-16 15:33N 38°01' E 023°33'2 1.5
2017-Jan-16 14:33N 38°02' E 023°35'0 0.0
2017-Jan-16 13:33N 38°02' E 023°35'0 0.1
2017-Jan-16 12:33N 38°02' E 023°35'0 0.0
2017-Jan-16 11:33N 38°02' E 023°35'0 0.0
2017-Jan-16 10:33N 38°02' E 023°35'0 0.0
2017-Jan-16 09:33N 38°02' E 023°35'0 0.1
2017-Jan-16 08:33N 38°02' E 023°35'0 0.0
2017-Jan-16 07:33N 38°02' E 023°35'0 0.1
2017-Jan-16 06:33N 38°02' E 023°35'0 0.0
2017-Jan-16 05:33N 38°02' E 023°35'0 0.0
2017-Jan-16 04:33N 38°02' E 023°35'0 0.0
2017-Jan-16 03:33N 38°02' E 023°35'0 0.0
2017-Jan-16 02:33N 38°02' E 023°35'0 0.0
2017-Jan-16 01:33N 38°02' E 023°35'0 0.1
2017-Jan-16 00:33N 38°02' E 023°35'0 0.0
2017-Jan-15 23:33N 38°02' E 023°35'0 0.0
2017-Jan-15 22:33N 38°02' E 023°35'0 0.0
2017-Jan-15 21:33N 38°02' E 023°35'0 0.0
2017-Jan-15 20:33N 38°02' E 023°35'0 0.0
2017-Jan-15 19:33N 38°02' E 023°35'0 0.0
2017-Jan-15 18:33N 38°02' E 023°35'0 0.0
2017-Jan-15 17:33N 38°02' E 023°35'0 0.0
2017-Jan-15 16:33N 38°02' E 023°35'0 0.0
2017-Jan-15 15:33N 38°02' E 023°35'0 0.1
2017-Jan-15 14:33N 38°02' E 023°35'0 0.0
2017-Jan-15 13:33N 38°02' E 023°35'0 0.0
2017-Jan-15 12:33N 38°02' E 023°35'0 0.0
2017-Jan-15 11:33N 38°02' E 023°35'0 0.0
2017-Jan-15 10:33N 38°02' E 023°35'0 0.0
2017-Jan-15 09:33N 38°02' E 023°35'0 0.1
2017-Jan-15 08:33N 38°02' E 023°35'0 0.1
2017-Jan-15 07:33N 38°02' E 023°35'0 0.4
2017-Jan-15 06:34N 38°02' E 023°36'0 0.0
2017-Jan-15 05:33N 38°02' E 023°36'0 0.0
2017-Jan-15 04:33N 38°02' E 023°36'0 0.0
2017-Jan-15 03:33N 38°02' E 023°36'0 0.1
2017-Jan-15 02:33N 38°02' E 023°36'8 7.6
2017-Jan-15 01:33N 37°60' E 023°26'7 7.4
2017-Jan-15 00:33N 37°52' E 023°25'5 5.3
2017-Jan-14 23:33N 37°51' E 023°32'0 0.0
2017-Jan-14 22:33N 37°51' E 023°32'0 0.0
2017-Jan-14 21:33N 37°51' E 023°32'0 0.0
2017-Jan-14 20:33N 37°51' E 023°32'0 0.0
2017-Jan-14 19:33N 37°51' E 023°32'0 0.0
2017-Jan-14 18:33N 37°51' E 023°32'0 0.0
2017-Jan-14 17:33N 37°51' E 023°32'0 0.0
2017-Jan-14 16:33N 37°51' E 023°32'0 0.0
2017-Jan-14 15:33N 37°51' E 023°32'0 0.1
2017-Jan-14 14:33N 37°51' E 023°32'0 0.2
2017-Jan-14 13:33N 37°52' E 023°32'0 0.2
2017-Jan-14 12:33N 37°52' E 023°32'0 0.0
2017-Jan-14 11:34N 37°52' E 023°32'0 0.0
2017-Jan-14 10:33N 37°52' E 023°32'0 0.0
2017-Jan-14 09:33N 37°52' E 023°32'3 3.2
2017-Jan-14 08:33N 37°55' E 023°33'7 6.7
2017-Jan-14 07:33N 38°01' E 023°32'1 0.6
2017-Jan-14 06:33N 38°02' E 023°32'0 0.0
2017-Jan-14 05:33N 38°02' E 023°32'0 0.0
2017-Jan-14 04:33N 38°02' E 023°32'0 0.0
2017-Jan-14 03:33N 38°02' E 023°32'0 0.0
2017-Jan-13 23:33N 38°02' E 023°32'0 0.0
2017-Jan-13 22:33N 38°02' E 023°32'0 0.0
2017-Jan-13 21:33N 38°02' E 023°32'0 0.0
2017-Jan-13 20:33N 38°02' E 023°32'0 0.0
2017-Jan-13 19:33N 38°02' E 023°32'0 0.0
2017-Jan-13 18:33N 38°02' E 023°32'0 0.0
2017-Jan-13 17:33N 38°02' E 023°32'0 0.1
2017-Jan-13 16:33N 38°02' E 023°32'0 0.1
2017-Jan-13 15:33N 38°02' E 023°32'3 2.8
2017-Jan-13 14:33N 38°02' E 023°36'0 0.0
2017-Jan-13 13:33N 38°02' E 023°36'0 0.0
2017-Jan-13 12:34N 38°02' E 023°36'0 0.0
2017-Jan-13 11:33N 38°02' E 023°36'0 0.0
2017-Jan-13 10:33N 38°02' E 023°36'0 0.0
2017-Jan-13 09:33N 38°02' E 023°36'0 0.0
2017-Jan-13 08:33N 38°02' E 023°36'0 0.0
2017-Jan-13 07:33N 38°02' E 023°36'0 0.0
2017-Jan-13 06:33N 38°02' E 023°36'0 0.0
2017-Jan-13 05:33N 38°02' E 023°36'0 0.4
2017-Jan-13 04:33N 38°02' E 023°35'6 5.9
2017-Jan-13 03:33N 38°00' E 023°28'8 8.0
2017-Jan-13 02:33N 37°53' E 023°24'9 8.9
2017-Jan-13 01:33N 37°56' E 023°34'1 1.4
2017-Jan-13 00:33N 37°57' E 023°36'0 0.0
2017-Jan-12 23:33N 37°57' E 023°36'0 0.0
2017-Jan-12 22:33N 37°57' E 023°36'0 0.0
2017-Jan-12 21:33N 37°57' E 023°36'0 0.0
2017-Jan-12 20:33N 37°57' E 023°36'0 0.0
2017-Jan-12 19:33N 37°57' E 023°36'0 0.0
2017-Jan-12 18:34N 37°57' E 023°36'0 0.0
2017-Jan-12 17:33N 37°57' E 023°36'0 0.1
2017-Jan-12 16:33N 37°57' E 023°36'6 6.4
2017-Jan-12 15:34N 37°52' E 023°32'0 0.4
2017-Jan-12 14:34N 37°51' E 023°32'0 0.0
2017-Jan-12 13:33N 37°51' E 023°31'0 0.0
2017-Jan-12 12:33N 37°51' E 023°31'0 0.0
2017-Jan-12 11:33N 37°51' E 023°31'0 0.0
2017-Jan-12 10:33N 37°51' E 023°31'2 1.9
2017-Jan-12 09:33N 37°53' E 023°33'3 3.2
2017-Jan-12 08:33N 37°56' E 023°34'0 0.0
2017-Jan-12 07:33N 37°56' E 023°34'0 0.4
2017-Jan-12 06:33N 37°56' E 023°34'5 5.5
2017-Jan-12 05:33N 38°01' E 023°35'0 0.0
2017-Jan-12 04:34N 38°01' E 023°35'0 0.0
2017-Jan-12 03:34N 38°01' E 023°35'0 0.0
2017-Jan-12 02:34N 38°01' E 023°35'0 0.0
2017-Jan-12 01:33N 38°01' E 023°35'0 0.0
2017-Jan-12 00:33N 38°01' E 023°35'0 0.1
2017-Jan-11 23:34N 38°01' E 023°35'0 0.0
2017-Jan-11 22:33N 38°01' E 023°35'0 0.0
2017-Jan-11 21:34N 38°01' E 023°35'0 0.0
2017-Jan-11 20:33N 38°01' E 023°35'1 0.7
2017-Jan-11 19:33N 38°02' E 023°36'0 0.0
2017-Jan-11 18:34N 38°02' E 023°36'0 0.0
2017-Jan-11 17:33N 38°02' E 023°36'0 0.0
2017-Jan-11 16:34N 38°02' E 023°36'1 0.8
2017-Jan-11 15:33N 38°01' E 023°35'2 2.0
2017-Jan-11 14:34N 38°02' E 023°32'0 0.0
2017-Jan-11 13:33N 38°01' E 023°32'0 0.0
2017-Jan-11 12:33N 38°01' E 023°32'0 0.0
2017-Jan-11 11:33N 38°01' E 023°32'0 0.0
2017-Jan-11 10:34N 38°02' E 023°32'0 0.1
2017-Jan-11 09:34N 38°01' E 023°32'0 0.1
2017-Jan-11 08:34N 38°01' E 023°32'0 0.0
2017-Jan-11 07:33N 38°01' E 023°32'0 0.0
2017-Jan-11 06:33N 38°01' E 023°32'4 4.2
2017-Jan-11 05:33N 37°57' E 023°34'1 1.0
2017-Jan-11 04:33N 37°57' E 023°35'0 0.0
2017-Jan-11 03:33N 37°57' E 023°35'0 0.0
2017-Jan-11 02:33N 37°57' E 023°35'0 0.0
2017-Jan-11 01:33N 37°57' E 023°35'0 0.0
2017-Jan-11 00:33N 37°57' E 023°35'0 0.1
2017-Jan-10 23:33N 37°57' E 023°35'2 1.9
2017-Jan-10 22:33N 37°55' E 023°34'0 0.0
2017-Jan-10 21:33N 37°56' E 023°34'0 0.0
2017-Jan-10 20:33N 37°55' E 023°34'0 0.0
2017-Jan-10 19:33N 37°56' E 023°34'0 0.0
2017-Jan-10 18:34N 37°56' E 023°34'0 0.0
2017-Jan-10 17:33N 37°56' E 023°34'0 0.0
2017-Jan-10 16:33N 37°55' E 023°34'0 0.0
2017-Jan-10 15:33N 37°56' E 023°34'0 0.1
2017-Jan-10 14:33N 37°55' E 023°34'0 0.0
2017-Jan-10 13:33N 37°55' E 023°34'0 0.1
2017-Jan-10 12:33N 37°55' E 023°34'0 0.0
2017-Jan-10 11:33N 37°55' E 023°34'0 0.0
2017-Jan-10 10:33N 37°55' E 023°34'0 0.0
2017-Jan-10 09:33N 37°55' E 023°34'0 0.0
2017-Jan-10 08:34N 37°55' E 023°34'0 0.0
2017-Jan-10 07:33N 37°55' E 023°34'0 0.0
2017-Jan-10 06:33N 37°55' E 023°34'0 0.0
2017-Jan-10 05:34N 37°55' E 023°34'0 0.0
2017-Jan-10 04:33N 37°55' E 023°34'0 0.0
2017-Jan-10 03:33N 37°55' E 023°34'0 0.0
2017-Jan-10 02:33N 37°55' E 023°34'0 0.0
2017-Jan-10 01:33N 37°55' E 023°34'0 0.0
2017-Jan-10 00:33N 37°55' E 023°34'0 0.0
2017-Jan-09 23:34N 37°55' E 023°34'0 0.0
2017-Jan-09 22:33N 37°55' E 023°34'0 0.0
2017-Jan-09 21:33N 37°55' E 023°34'0 0.0
2017-Jan-09 20:33N 37°55' E 023°34'0 0.0
2017-Jan-09 19:33N 37°55' E 023°34'0 0.0
2017-Jan-09 18:33N 37°55' E 023°34'0 0.0
2017-Jan-09 17:33N 37°55' E 023°34'0 0.0
2017-Jan-09 16:33N 37°55' E 023°34'0 0.0
2017-Jan-09 15:34N 37°55' E 023°34'0 0.0
2017-Jan-09 14:34N 37°55' E 023°34'0 0.0
2017-Jan-09 13:34N 37°55' E 023°34'2 1.8
2017-Jan-09 12:33N 37°57' E 023°35'5 4.5
2017-Jan-09 11:34N 38°02' E 023°35'0 0.1
2017-Jan-09 10:33N 38°02' E 023°35'0 0.0
2017-Jan-09 09:33N 38°02' E 023°35'0 0.0
2017-Jan-09 08:34N 38°02' E 023°35'0 0.0
2017-Jan-09 07:33N 38°02' E 023°35'0 0.0
2017-Jan-09 06:33N 38°02' E 023°35'0 0.0
2017-Jan-09 05:33N 38°02' E 023°35'0 0.0
2017-Jan-09 04:33N 38°02' E 023°35'0 0.0
2017-Jan-09 03:33N 38°02' E 023°35'0 0.0
2017-Jan-09 02:33N 38°02' E 023°35'0 0.0
2017-Jan-09 01:33N 38°02' E 023°35'0 0.0
2017-Jan-09 00:33N 38°02' E 023°35'0 0.0
2017-Jan-08 23:33N 38°02' E 023°35'1 0.6
2017-Jan-08 22:33N 38°02' E 023°36'0 0.0
2017-Jan-08 21:34N 38°02' E 023°36'0 0.0
2017-Jan-08 20:33N 38°02' E 023°36'0 0.0
2017-Jan-08 19:33N 38°02' E 023°36'0 0.0
2017-Jan-08 18:33N 38°02' E 023°36'0 0.0
2017-Jan-08 17:34N 38°02' E 023°36'0 0.0
2017-Jan-08 16:34N 38°02' E 023°36'0 0.0
2017-Jan-08 15:33N 38°02' E 023°36'0 0.0
2017-Jan-08 14:33N 38°02' E 023°36'0 0.0
2017-Jan-08 13:33N 38°02' E 023°36'0 0.0
2017-Jan-08 12:33N 38°02' E 023°36'0 0.0
2017-Jan-08 11:33N 38°02' E 023°36'0 0.0
2017-Jan-08 10:33N 38°02' E 023°36'0 0.0
2017-Jan-08 09:33N 38°02' E 023°36'0 0.0
2017-Jan-08 08:33N 38°02' E 023°36'0 0.0
2017-Jan-08 07:33N 38°02' E 023°36'0 0.0
2017-Jan-08 06:33N 38°02' E 023°36'0 0.0
2017-Jan-08 05:33N 38°02' E 023°36'0 0.0
2017-Jan-08 04:33N 38°02' E 023°36'0 0.0
2017-Jan-08 03:34N 38°02' E 023°36'0 0.0
2017-Jan-08 02:33N 38°02' E 023°36'0 0.0
2017-Jan-08 01:33N 38°02' E 023°36'0 0.0
2017-Jan-08 00:33N 38°02' E 023°36'0 0.0
2017-Jan-07 23:34N 38°02' E 023°36'0 0.0
2017-Jan-07 22:33N 38°02' E 023°36'0 0.0
2017-Jan-07 21:33N 38°02' E 023°36'0 0.0
2017-Jan-07 20:33N 38°02' E 023°36'0 0.0
2017-Jan-07 19:33N 38°02' E 023°36'0 0.0
2017-Jan-07 18:33N 38°02' E 023°36'0 0.0
2017-Jan-07 17:34N 38°02' E 023°36'0 0.5
2017-Jan-07 16:33N 38°02' E 023°35'0 0.0
2017-Jan-07 15:34N 38°02' E 023°35'0 0.4
2017-Jan-07 14:34N 38°02' E 023°36'  

Dump ship's entire track history